| time (UTC) | temp C | wind direction | speed KPH | gust KPH | rain 1hr cm | rain 24hr cm | rain mn cm | humidity % | barometer mb |
| 20260503184849 | 25 | 316 | 1.6 | 8.0 | 0.00 | 0.00 | 0.00 | 52 | 1011.8 |
| 20260503184334 | 24 | 20 | 0.0 | 8.0 | 0.00 | 0.00 | 0.00 | 53 | 1011.8 |
| 20260503183840 | 24 | 7 | 0.0 | 4.8 | 0.00 | 0.00 | 0.00 | 54 | 1011.9 |
| 20260503183339 | 23 | 1 | 0.0 | 8.0 | 0.00 | 0.00 | 0.00 | 55 | 1011.9 |
| 20260503182836 | 23 | 6 | 8.0 | 8.0 | 0.00 | 0.00 | 0.00 | 55 | 1012.0 |
| 20260503182333 | 23 | 0 | 1.6 | 9.7 | 0.00 | 0.00 | 0.00 | 55 | 1012.0 |
| 20260503181851 | 23 | 58 | 0.0 | 9.7 | 0.00 | 0.00 | 0.00 | 57 | 1012.0 |
| 20260503181336 | 22 | 339 | 0.0 | 9.7 | 0.00 | 0.00 | 0.00 | 57 | 1012.2 |
| 20260503180842 | 22 | 353 | 3.2 | 9.7 | 0.00 | 0.00 | 0.00 | 58 | 1012.2 |
| 20260503180350 | 22 | 0 | 4.8 | 11.3 | 0.00 | 0.00 | 0.00 | 59 | 1012.2 |
| 20260503175852 | 22 | 0 | 3.2 | 12.9 | 0.00 | 0.00 | 0.00 | 61 | 1012.2 |
| 20260503175348 | 21 | 347 | 1.6 | 12.9 | 0.00 | 0.00 | 0.00 | 60 | 1012.3 |
| 20260503174849 | 21 | 9 | 4.8 | 11.3 | 0.00 | 0.00 | 0.00 | 62 | 1012.4 |
| 20260503174344 | 21 | 358 | 0.0 | 11.3 | 0.00 | 0.00 | 0.00 | 62 | 1012.4 |
| 20260503173848 | 21 | 200 | 0.0 | 9.7 | 0.00 | 0.00 | 0.00 | 63 | 1012.4 |
| 20260503173333 | 21 | 311 | 4.8 | 9.7 | 0.00 | 0.00 | 0.00 | 64 | 1012.5 |
| 20260503172837 | 21 | 346 | 1.6 | 9.7 | 0.00 | 0.00 | 0.00 | 65 | 1012.5 |
| 20260503172337 | 20 | 354 | 0.0 | 8.0 | 0.00 | 0.00 | 0.00 | 65 | 1012.5 |
| 20260503171836 | 20 | 353 | 6.4 | 8.0 | 0.00 | 0.00 | 0.00 | 66 | 1012.7 |
| 20260503171336 | 20 | 296 | 0.0 | 6.4 | 0.00 | 0.00 | 0.00 | 66 | 1012.6 |
| 20260503170852 | 20 | 358 | 0.0 | 3.2 | 0.00 | 0.00 | 0.00 | 66 | 1012.6 |
| 20260503150842 | 13 | 331 | 0.0 | 1.6 | 0.00 | 0.00 | 0.00 | 98 | 1013.3 |
| 20260503150337 | 13 | 331 | 1.6 | 1.6 | 0.00 | 0.00 | 0.00 | 97 | 1013.2 |
| 20260503131348 | 12 | 331 | 0.0 | 0.0 | 0.00 | 0.00 | 0.00 | 96 | 1012.8 |
| 20260503130848 | 11 | 331 | 0.0 | 0.0 | 0.00 | 0.00 | 0.00 | 96 | 1012.7 |
| 20260503130334 | 12 | 331 | 0.0 | 0.0 | 0.00 | 0.00 | 0.00 | 95 | 1012.7 |
| 20260503110345 | 12 | 331 | 0.0 | 0.0 | 0.00 | 0.00 | 0.00 | 95 | 1012.9 |
| 20260503090333 | 13 | 331 | 0.0 | 0.0 | 0.00 | 0.03 | 0.00 | 92 | 1013.3 |
| 20260503080837 | 13 | 331 | 0.0 | 0.0 | 0.00 | 0.03 | 0.00 | 89 | 1013.3 |
| 20260503072340 | 15 | 331 | 0.0 | 0.0 | 0.00 | 0.03 | 0.00 | 87 | 1013.3 |
| 20260503071846 | 15 | 331 | 0.0 | 0.0 | 0.00 | 0.03 | 0.00 | 86 | 1013.4 |
| 20260503071344 | 15 | 331 | 0.0 | 0.0 | 0.00 | 0.03 | 0.00 | 86 | 1013.4 |
| 20260503070838 | 15 | 331 | 0.0 | 0.0 | 0.00 | 0.03 | 0.00 | 86 | 1013.4 |
| 20260503070338 | 15 | 331 | 0.0 | 0.0 | 0.00 | 0.03 | 0.00 | 86 | 1013.4 |
| 20260503054837 | 16 | 331 | 0.0 | 0.0 | 0.00 | 0.03 | 0.00 | 81 | 1013.4 |
| 20260503054343 | 16 | 331 | 0.0 | 0.0 | 0.00 | 0.03 | 0.00 | 81 | 1013.4 |
| 20260503053848 | 16 | 331 | 0.0 | 0.0 | 0.00 | 0.03 | 0.00 | 80 | 1013.3 |
| 20260503053345 | 16 | 331 | 0.0 | 0.0 | 0.00 | 0.03 | 0.00 | 80 | 1013.2 |
| 20260503052846 | 16 | 331 | 0.0 | 0.0 | 0.00 | 0.03 | 0.00 | 80 | 1013.2 |
| 20260503052342 | 16 | 331 | 0.0 | 0.0 | 0.00 | 0.03 | 0.00 | 79 | 1013.1 |
| 20260503051840 | 17 | 331 | 0.0 | 0.0 | 0.00 | 0.03 | 0.00 | 79 | 1013.2 |
| 20260503051343 | 17 | 331 | 0.0 | 0.0 | 0.00 | 0.03 | 0.00 | 79 | 1013.2 |
| 20260503050830 | 17 | 331 | 0.0 | 3.2 | 0.00 | 0.03 | 0.00 | 79 | 1013.1 |
| 20260503050336 | 17 | 331 | 0.0 | 3.2 | 0.00 | 0.03 | 0.00 | 78 | 1013.2 |
| 20260503045832 | 17 | 332 | 0.0 | 3.2 | 0.00 | 0.03 | 0.00 | 79 | 1013.2 |
| 20260503044846 | 17 | 8 | 1.6 | 1.6 | 0.00 | 0.03 | 0.00 | 78 | 1013.3 |
| 20260503044344 | 17 | 9 | 0.0 | 0.0 | 0.00 | 0.03 | 0.00 | 78 | 1013.5 |
| 20260503043847 | 17 | 9 | 0.0 | 0.0 | 0.00 | 0.03 | 0.00 | 77 | 1013.6 |
| 20260503043350 | 17 | 9 | 0.0 | 0.0 | 0.00 | 0.03 | 0.00 | 77 | 1013.6 |
| 20260503042850 | 17 | 9 | 0.0 | 0.0 | 0.00 | 0.03 | 0.00 | 76 | 1013.3 |
| 20260503042345 | 17 | 9 | 0.0 | 0.0 | 0.00 | 0.03 | 0.00 | 76 | 1013.2 |
| 20260503041842 | 17 | 9 | 0.0 | 1.6 | 0.00 | 0.03 | 0.00 | 75 | 1013.3 |
| 20260503041336 | 17 | 9 | 0.0 | 1.6 | 0.00 | 0.03 | 0.00 | 75 | 1013.2 |
| 20260503040838 | 17 | 9 | 0.0 | 1.6 | 0.00 | 0.03 | 0.00 | 75 | 1013.1 |
| 20260503040341 | 17 | 9 | 0.0 | 1.6 | 0.00 | 0.03 | 0.00 | 75 | 1013.1 |
| 20260503035841 | 17 | 9 | 0.0 | 0.0 | 0.00 | 0.03 | 0.00 | 75 | 1013.2 |
| 20260503035344 | 17 | 9 | 0.0 | 0.0 | 0.00 | 0.03 | 0.00 | 75 | 1013.2 |
| 20260503034841 | 17 | 9 | 0.0 | 0.0 | 0.00 | 0.03 | 0.00 | 75 | 1013.3 |
| 20260503034333 | 17 | 9 | 0.0 | 1.6 | 0.00 | 0.03 | 0.00 | 75 | 1013.3 |
| 20260503033831 | 18 | 9 | 0.0 | 1.6 | 0.00 | 0.03 | 0.00 | 75 | 1013.3 |
| 20260503033335 | 18 | 9 | 0.0 | 0.0 | 0.00 | 0.03 | 0.00 | 74 | 1013.2 |
| 20260503032840 | 18 | 9 | 0.0 | 0.0 | 0.00 | 0.03 | 0.00 | 74 | 1013.1 |
| 20260503032335 | 18 | 9 | 0.0 | 0.0 | 0.00 | 0.03 | 0.00 | 73 | 1013.1 |
| 20260503031833 | 18 | 9 | 0.0 | 0.0 | 0.00 | 0.03 | 0.00 | 73 | 1013.1 |
| 20260503031332 | 18 | 9 | 0.0 | 1.6 | 0.00 | 0.03 | 0.00 | 73 | 1013.0 |
| 20260503030349 | 18 | 9 | 0.0 | 3.2 | 0.00 | 0.03 | 0.00 | 71 | 1012.9 |
| 20260503025834 | 18 | 9 | 1.6 | 3.2 | 0.00 | 0.03 | 0.00 | 71 | 1012.9 |
| 20260503025334 | 18 | 23 | 1.6 | 3.2 | 0.00 | 0.03 | 0.00 | 71 | 1012.8 |
| 20260503024840 | 18 | 133 | 0.0 | 4.8 | 0.00 | 0.03 | 0.00 | 71 | 1013.0 |
| 20260503024341 | 18 | 133 | 0.0 | 4.8 | 0.00 | 0.03 | 0.00 | 71 | 1013.1 |
| 20260503023839 | 18 | 133 | 3.2 | 9.7 | 0.00 | 0.03 | 0.00 | 71 | 1013.1 |
| 20260503023347 | 18 | 171 | 1.6 | 11.3 | 0.00 | 0.03 | 0.00 | 71 | 1013.1 |
| 20260503022831 | 18 | 163 | 4.8 | 17.7 | 0.00 | 0.03 | 0.00 | 71 | 1013.1 |
| 20260503022348 | 18 | 173 | 9.7 | 17.7 | 0.00 | 0.03 | 0.00 | 70 | 1013.1 |
| 20260503021845 | 18 | 154 | 6.4 | 17.7 | 0.00 | 0.03 | 0.00 | 70 | 1013.2 |
| 20260503021345 | 19 | 134 | 9.7 | 17.7 | 0.00 | 0.03 | 0.00 | 70 | 1013.1 |
| 20260503020840 | 19 | 194 | 16.1 | 19.3 | 0.00 | 0.03 | 0.00 | 69 | 1013.2 |
| 20260503020344 | 20 | 155 | 6.4 | 19.3 | 0.00 | 0.03 | 0.00 | 67 | 1013.2 |
| 20260503015846 | 20 | 179 | 16.1 | 16.1 | 0.00 | 0.03 | 0.00 | 66 | 1013.1 |
| 20260503015333 | 20 | 185 | 8.0 | 9.7 | 0.00 | 0.03 | 0.00 | 65 | 1012.7 |
| 20260503014831 | 20 | 198 | 1.6 | 9.7 | 0.00 | 0.03 | 0.00 | 64 | 1012.3 |
| 20260503014330 | 20 | 160 | 3.2 | 11.3 | 0.00 | 0.03 | 0.00 | 64 | 1012.4 |
| 20260503013830 | 20 | 198 | 3.2 | 11.3 | 0.00 | 0.03 | 0.00 | 64 | 1012.3 |
| 20260503013344 | 21 | 193 | 6.4 | 8.0 | 0.00 | 0.03 | 0.00 | 63 | 1012.3 |
| 20260503012848 | 21 | 207 | 6.4 | 8.0 | 0.00 | 0.03 | 0.00 | 63 | 1012.2 |
| 20260503012329 | 21 | 217 | 8.0 | 9.7 | 0.00 | 0.03 | 0.00 | 62 | 1012.3 |
| 20260503011831 | 21 | 191 | 6.4 | 9.7 | 0.00 | 0.03 | 0.00 | 62 | 1012.2 |
| 20260503011331 | 21 | 172 | 3.2 | 6.4 | 0.00 | 0.03 | 0.00 | 61 | 1012.2 |
| 20260503010847 | 21 | 178 | 4.8 | 6.4 | 0.00 | 0.03 | 0.00 | 60 | 1012.2 |
| 20260503010342 | 21 | 175 | 4.8 | 8.0 | 0.00 | 0.03 | 0.00 | 60 | 1012.2 |
| 20260503005844 | 22 | 190 | 3.2 | 8.0 | 0.00 | 0.03 | 0.00 | 58 | 1012.2 |
| 20260503005330 | 22 | 216 | 3.2 | 4.8 | 0.00 | 0.03 | 0.00 | 57 | 1012.1 |
| 20260503004836 | 22 | 204 | 1.6 | 4.8 | 0.00 | 0.03 | 0.00 | 56 | 1012.2 |
| 20260503004340 | 22 | 214 | 0.0 | 4.8 | 0.00 | 0.03 | 0.00 | 57 | 1012.1 |
| 20260503003838 | 22 | 226 | 4.8 | 4.8 | 0.00 | 0.03 | 0.00 | 55 | 1012.2 |
| 20260503003337 | 23 | 347 | 0.0 | 3.2 | 0.00 | 0.03 | 0.00 | 54 | 1012.1 |
| 20260503002833 | 23 | 343 | 1.6 | 3.2 | 0.00 | 0.03 | 0.00 | 55 | 1012.1 |
| 20260503002333 | 23 | 302 | 0.0 | 4.8 | 0.00 | 0.03 | 0.00 | 55 | 1012.1 |
| 20260503001838 | 22 | 311 | 0.0 | 6.4 | 0.00 | 0.03 | 0.00 | 55 | 1012.0 |
| 20260503000848 | 22 | 178 | 6.4 | 9.7 | 0.00 | 0.03 | 0.00 | 56 | 1012.1 |
| 20260503000327 | 22 | 359 | 0.0 | 9.7 | 0.00 | 0.03 | 0.00 | 55 | 1012.2 |
| 20260502235844 | 22 | 0 | 6.4 | 8.0 | 0.00 | 0.03 | 0.00 | 55 | 1012.4 |
| 20260502235344 | 22 | 248 | 1.6 | 4.8 | 0.00 | 0.03 | 0.00 | 57 | 1012.3 |
| 20260502234846 | 22 | 249 | 0.0 | 4.8 | 0.00 | 0.03 | 0.00 | 58 | 1012.3 |
| 20260502234331 | 22 | 193 | 1.6 | 1.6 | 0.00 | 0.03 | 0.00 | 57 | 1012.4 |
| 20260502233833 | 21 | 202 | 0.0 | 8.0 | 0.00 | 0.03 | 0.00 | 58 | 1012.5 |
| 20260502233335 | 21 | 201 | 3.2 | 8.0 | 0.00 | 0.03 | 0.00 | 58 | 1012.6 |
| 20260502232833 | 22 | 298 | 0.0 | 8.0 | 0.00 | 0.03 | 0.00 | 58 | 1012.7 |
| 20260502232348 | 21 | 293 | 4.8 | 8.0 | 0.00 | 0.03 | 0.00 | 58 | 1012.8 |
| 20260502231847 | 21 | 242 | 6.4 | 6.4 | 0.00 | 0.03 | 0.00 | 57 | 1012.8 |
| 20260502231331 | 21 | 225 | 0.0 | 3.2 | 0.00 | 0.03 | 0.00 | 59 | 1012.9 |
| 20260502230343 | 20 | 299 | 0.0 | 6.4 | 0.00 | 0.03 | 0.00 | 60 | 1013.0 |
| 20260502225844 | 20 | 319 | 6.4 | 6.4 | 0.00 | 0.03 | 0.00 | 59 | 1013.0 |
| 20260502224841 | 20 | 359 | 0.0 | 3.2 | 0.00 | 0.03 | 0.00 | 60 | 1013.1 |
| 20260502224342 | 20 | 0 | 0.0 | 6.4 | 0.00 | 0.03 | 0.00 | 60 | 1013.3 |
| 20260502223347 | 20 | 359 | 6.4 | 9.7 | 0.00 | 0.03 | 0.00 | 60 | 1013.5 |
| 20260502222851 | 20 | 18 | 0.0 | 6.4 | 0.00 | 0.03 | 0.00 | 60 | 1013.7 |
| 20260502222341 | 20 | 348 | 6.4 | 6.4 | 0.00 | 0.03 | 0.00 | 61 | 1013.7 |
| 20260502221838 | 20 | 6 | 4.8 | 11.3 | 0.00 | 0.03 | 0.00 | 61 | 1013.8 |
| 20260502221335 | 20 | 283 | 3.2 | 11.3 | 0.00 | 0.03 | 0.00 | 61 | 1013.9 |
| 20260502220836 | 20 | 319 | 1.6 | 8.0 | 0.00 | 0.03 | 0.00 | 60 | 1013.9 |
| 20260502220336 | 20 | 179 | 0.0 | 6.4 | 0.00 | 0.03 | 0.00 | 61 | 1013.9 |
| 20260502215843 | 20 | 216 | 0.0 | 6.4 | 0.00 | 0.03 | 0.00 | 62 | 1014.1 |
| 20260502215326 | 19 | 295 | 3.2 | 4.8 | 0.00 | 0.03 | 0.00 | 64 | 1014.2 |
| 20260502213844 | 18 | 268 | 0.0 | 6.4 | 0.00 | 0.03 | 0.00 | 64 | 1014.3 |
| 20260502213345 | 18 | 217 | 0.0 | 4.8 | 0.00 | 0.03 | 0.00 | 63 | 1014.4 |
| 20260502212832 | 18 | 329 | 0.0 | 6.4 | 0.00 | 0.03 | 0.00 | 65 | 1014.4 |
| 20260502211836 | 18 | 0 | 6.4 | 6.4 | 0.00 | 0.03 | 0.00 | 65 | 1014.8 |
| 20260502211337 | 18 | 264 | 3.2 | 4.8 | 0.00 | 0.03 | 0.00 | 64 | 1014.8 |
| 20260502210837 | 18 | 346 | 0.0 | 8.0 | 0.00 | 0.03 | 0.00 | 64 | 1014.8 |
| 20260502205842 | 18 | 359 | 3.2 | 8.0 | 0.00 | 0.03 | 0.00 | 67 | 1014.8 |
| 20260502205328 | 18 | 329 | 1.6 | 6.4 | 0.00 | 0.03 | 0.00 | 67 | 1015.1 |
| 20260502204831 | 17 | 349 | 4.8 | 6.4 | 0.00 | 0.03 | 0.00 | 66 | 1015.2 |
| 20260502203831 | 17 | 231 | 0.0 | 4.8 | 0.00 | 0.03 | 0.00 | 69 | 1015.4 |
| 20260502203326 | 17 | 327 | 0.0 | 9.7 | 0.00 | 0.03 | 0.00 | 69 | 1015.6 |
| 20260502202334 | 17 | 227 | 0.0 | 8.0 | 0.00 | 0.03 | 0.00 | 69 | 1015.6 |
| 20260502201341 | 16 | 10 | 6.4 | 6.4 | 0.00 | 0.03 | 0.00 | 71 | 1015.7 |
| 20260502200337 | 16 | 210 | 0.0 | 9.7 | 0.00 | 0.03 | 0.00 | 72 | 1015.9 |
| 20260502195837 | 15 | 327 | 0.0 | 4.8 | 0.00 | 0.03 | 0.00 | 73 | 1016.0 |
| 20260502195339 | 15 | 0 | 0.0 | 4.8 | 0.00 | 0.03 | 0.00 | 74 | 1015.9 |
| 20260502193836 | 15 | 313 | 0.0 | 8.0 | 0.00 | 0.03 | 0.00 | 75 | 1016.1 |
| 20260502193330 | 15 | 302 | 0.0 | 8.0 | 0.00 | 0.03 | 0.00 | 75 | 1016.0 |
| 20260502192830 | 15 | 344 | 3.2 | 6.4 | 0.00 | 0.03 | 0.00 | 75 | 1016.1 |
| 20260502191338 | 13 | 258 | 0.0 | 8.0 | 0.00 | 0.03 | 0.00 | 77 | 1016.4 |
| 20260502190845 | 13 | 197 | 4.8 | 8.0 | 0.00 | 0.03 | 0.00 | 78 | 1016.6 |
| 20260502190329 | 13 | 200 | 6.4 | 9.7 | 0.00 | 0.03 | 0.00 | 77 | 1016.9 |
| 20260502185844 | 13 | 200 | 6.4 | 9.7 | 0.00 | 0.03 | 0.00 | 76 | 1016.8 |
| 20260502185343 | 14 | 206 | 3.2 | 6.4 | 0.00 | 0.03 | 0.00 | 76 | 1016.7 |